Time;durP1;ratioP1;P1;durP2;ratioP2;P2;SDS_P1;SDS_P2;PMS_P1;PMS_P2;Temp;Humidity;BMP_temperature;BMP_pressure;BME280_temperature;BME280_humidity;BME280_pressure;Samples;Min_cycle;Max_cycle;Signal;HPM_P1;HPM_P2
2021/01/11 00:00:17;;;;;;;0.40;0.30;;;;;;;1.32;88.39;101533.97;5094332;28;20507;-77
2021/01/11 00:02:44;;;;;;;1.80;0.60;;;;;;;1.38;87.35;101529.63;5094348;28;20445;-77
2021/01/11 00:05:12;;;;;;;0.40;0.30;;;;;;;1.37;87.02;101519.97;5094484;28;20464;-77
2021/01/11 00:07:40;;;;;;;0.40;0.30;;;;;;;1.34;87.05;101512.41;5094514;28;20880;-77
2021/01/11 00:10:08;;;;;;;2.10;0.70;;;;;;;1.29;86.88;101509.59;5094187;28;20469;-77
2021/01/11 00:12:38;;;;;;;0.40;0.30;;;;;;;1.23;87.13;101514.72;5094246;28;20443;-77
2021/01/11 00:15:07;;;;;;;0.40;0.40;;;;;;;1.27;86.94;101523.94;5094486;28;20925;-77
2021/01/11 00:17:34;;;;;;;0.77;0.77;;;;;;;1.23;86.77;101516.59;5094155;28;20875;-77
2021/01/11 00:20:01;;;;;;;1.23;0.93;;;;;;;1.21;87.06;101524.81;5093964;28;20855;-77
2021/01/11 00:22:27;;;;;;;1.07;0.97;;;;;;;1.20;87.26;101515.19;5094325;28;20952;-77
2021/01/11 00:24:54;;;;;;;0.40;0.30;;;;;;;1.29;86.69;101509.59;5093784;28;20439;-77
2021/01/11 00:27:20;;;;;;;0.97;0.97;;;;;;;1.32;86.61;101514.47;5093951;28;20440;-77
2021/01/11 00:29:46;;;;;;;0.40;0.30;;;;;;;1.29;86.50;101514.94;5093950;28;20464;-77
2021/01/11 00:32:12;;;;;;;1.13;1.13;;;;;;;1.35;86.85;101516.72;5093901;28;20441;-77
2021/01/11 00:34:39;;;;;;;0.40;0.30;;;;;;;1.36;86.10;101527.16;5093770;28;20450;-77
2021/01/11 00:37:06;;;;;;;0.40;0.30;;;;;;;1.35;86.52;101517.53;5094073;28;20436;-77
2021/01/11 00:39:32;;;;;;;1.63;1.53;;;;;;;1.46;87.10;101521.34;5094221;28;20951;-77
2021/01/11 00:41:59;;;;;;;3.90;1.43;;;;;;;1.52;86.66;101520.50;5093668;28;20945;-77
2021/01/11 00:44:26;;;;;;;2.37;1.33;;;;;;;1.48;86.46;101524.63;5093918;28;20427;-77
2021/01/11 00:46:57;;;;;;;1.17;0.80;;;;;;;1.56;85.59;101519.03;5094047;28;20913;-77
2021/01/11 00:49:24;;;;;;;0.40;0.30;;;;;;;1.59;84.90;101509.75;5094263;28;20468;-77
2021/01/11 00:51:50;;;;;;;0.50;0.50;;;;;;;1.64;84.92;101513.41;5094030;28;20802;-77
2021/01/11 00:54:17;;;;;;;5.33;1.80;;;;;;;1.63;84.08;101516.28;5096597;28;20456;-76
2021/01/11 00:56:43;;;;;;;3.40;1.37;;;;;;;1.65;83.75;101515.03;5093748;28;20444;-77
2021/01/11 00:59:09;;;;;;;1.10;0.80;;;;;;;1.67;83.69;101512.13;5093980;28;20460;-76
2021/01/11 01:01:36;;;;;;;3.33;1.10;;;;;;;1.70;83.62;101515.19;5094044;28;20450;-77
2021/01/11 01:04:02;;;;;;;0.40;0.27;;;;;;;1.69;83.60;101510.91;5093565;28;20440;-77
2021/01/11 01:06:29;;;;;;;2.73;1.33;;;;;;;1.74;83.81;101505.72;5093710;28;20487;-77
2021/01/11 01:08:55;;;;;;;1.50;1.00;;;;;;;1.83;83.12;101510.78;5092718;28;20540;-77
2021/01/11 01:11:22;;;;;;;0.40;0.30;;;;;;;1.87;82.74;101517.31;5093399;28;20441;-77
2021/01/11 01:13:49;;;;;;;0.40;0.30;;;;;;;1.90;82.63;101511.50;5093616;28;20444;-77
2021/01/11 01:16:25;;;;;;;0.50;0.47;;;;;;;1.90;82.62;101506.97;5093658;28;20441;-77
2021/01/11 01:18:51;;;;;;;0.47;0.43;;;;;;;1.92;82.25;101507.59;5094182;28;20474;-77
2021/01/11 01:21:18;;;;;;;0.40;0.30;;;;;;;1.91;81.79;101511.31;5093862;28;20489;-77
2021/01/11 01:23:44;;;;;;;0.40;0.30;;;;;;;1.90;81.93;101500.81;5093932;28;20477;-78
2021/01/11 01:26:10;;;;;;;0.40;0.30;;;;;;;1.91;81.29;101508.63;5093652;28;20989;-76
2021/01/11 01:28:37;;;;;;;3.90;0.97;;;;;;;1.90;81.67;101504.31;5093452;28;20520;-77
2021/01/11 01:31:03;;;;;;;0.40;0.30;;;;;;;1.92;81.70;101498.78;5093336;28;20441;-77
2021/01/11 01:33:30;;;;;;;1.27;0.53;;;;;;;1.91;81.85;101494.47;5094067;28;20442;-76
2021/01/11 01:35:56;;;;;;;0.40;0.30;;;;;;;1.94;82.22;101500.16;5093199;28;20440;-77
2021/01/11 01:38:22;;;;;;;0.57;0.50;;;;;;;1.99;82.33;101496.81;5093346;28;20458;-76
2021/01/11 01:40:48;;;;;;;0.40;0.30;;;;;;;1.98;82.10;101500.53;5093498;28;20450;-76
2021/01/11 01:43:15;;;;;;;0.50;0.50;;;;;;;1.95;82.41;101493.00;5093679;28;20441;-76
2021/01/11 01:45:42;;;;;;;0.40;0.20;;;;;;;1.99;82.51;101488.81;5094182;28;20487;-76
2021/01/11 01:48:10;;;;;;;0.40;0.40;;;;;;;2.00;82.22;101487.81;5095849;28;20857;-77
2021/01/11 01:50:38;;;;;;;0.40;0.30;;;;;;;2.03;82.95;101495.34;5093230;28;20482;-77
2021/01/11 01:53:04;;;;;;;0.97;0.60;;;;;;;2.05;82.58;101484.47;5094222;28;20941;-76
2021/01/11 01:55:31;;;;;;;0.50;0.43;;;;;;;2.05;82.08;101484.47;5094336;28;20951;-77
2021/01/11 01:58:01;;;;;;;0.80;0.70;;;;;;;2.04;82.56;101489.00;5093123;28;20444;-77
2021/01/11 02:00:28;;;;;;;0.60;0.40;;;;;;;2.03;82.94;101484.66;5092882;28;20894;-77
2021/01/11 02:02:55;;;;;;;0.60;0.60;;;;;;;2.03;82.63;101485.47;5094374;28;20948;-77
2021/01/11 02:05:21;;;;;;;0.57;0.57;;;;;;;2.03;83.31;101480.13;5092732;28;20448;-76
2021/01/11 02:07:55;;;;;;;4.73;0.70;;;;;;;1.99;83.66;101472.78;5093511;28;20438;-76
2021/01/11 02:10:28;;;;;;;0.70;0.47;;;;;;;2.02;83.42;101477.69;5092974;28;20433;-77
2021/01/11 02:13:09;;;;;;;0.40;0.30;;;;;;;2.03;83.21;101479.31;5093645;28;20432;-77
2021/01/11 02:15:43;;;;;;;2.20;2.00;;;;;;;1.99;83.66;101470.97;5093150;28;20528;-76
2021/01/11 02:18:19;;;;;;;0.60;0.50;;;;;;;2.03;83.51;101471.31;5092927;28;20421;-76
2021/01/11 02:21:18;;;;;;;0.40;0.40;;;;;;;1.99;83.33;101468.28;5097324;28;20905;-76
2021/01/11 02:24:26;;;;;;;0.80;0.80;;;;;;;2.03;83.80;101473.97;5096719;28;20428;-77
2021/01/11 02:26:59;;;;;;;0.40;0.30;;;;;;;2.02;83.83;101478.50;5096623;28;20474;-76
2021/01/11 02:29:34;;;;;;;1.57;1.47;;;;;;;2.01;83.89;101465.38;5097830;28;20470;-76
2021/01/11 02:32:01;;;;;;;0.40;0.30;;;;;;;2.06;83.92;101472.72;5096446;28;20513;-76
2021/01/11 02:34:32;;;;;;;0.50;0.30;;;;;;;2.02;83.98;101469.69;5096495;28;20434;-76
2021/01/11 02:37:01;;;;;;;0.40;0.40;;;;;;;2.04;84.37;101464.94;5098281;28;20448;-76
2021/01/11 02:39:27;;;;;;;0.40;0.30;;;;;;;2.08;84.95;101463.47;5096429;28;20484;-76
2021/01/11 02:41:53;;;;;;;0.40;0.30;;;;;;;1.99;84.61;101457.59;5102134;28;20458;-76
2021/01/11 02:44:19;;;;;;;0.40;0.30;;;;;;;1.94;84.92;101459.28;5098393;28;20489;-76
2021/01/11 02:46:46;;;;;;;0.40;0.33;;;;;;;1.90;85.79;101456.22;5097323;28;20516;-77
2021/01/11 02:49:23;;;;;;;0.40;0.30;;;;;;;1.84;86.35;101462.47;5097412;28;20457;-76
2021/01/11 02:51:59;;;;;;;0.40;0.30;;;;;;;1.77;87.69;101465.22;5098265;28;20788;-76
2021/01/11 02:54:33;;;;;;;1.20;0.80;;;;;;;1.74;88.85;101456.81;5096262;28;20905;-76
2021/01/11 02:57:08;;;;;;;0.40;0.30;;;;;;;1.69;90.03;101452.16;5096193;28;20850;-76
2021/01/11 02:59:38;;;;;;;0.40;0.30;;;;;;;1.65;89.87;101442.94;5096709;28;20466;-76
2021/01/11 03:02:08;;;;;;;0.40;0.30;;;;;;;1.67;89.90;101453.41;5095645;28;20462;-76
2021/01/11 03:04:37;;;;;;;0.40;0.30;;;;;;;1.68;90.69;101455.03;5095574;28;20444;-76
2021/01/11 03:07:04;;;;;;;0.40;0.30;;;;;;;1.67;91.10;101451.53;5096436;28;20579;-76
2021/01/11 03:09:34;;;;;;;2.30;0.50;;;;;;;1.58;92.54;101462.72;5096616;28;20492;-76
2021/01/11 03:12:01;;;;;;;0.93;0.93;;;;;;;1.48;93.64;101456.03;5097649;28;20876;-76
2021/01/11 03:14:28;;;;;;;0.50;0.50;;;;;;;1.40;94.70;101458.97;5095983;28;20441;-76
2021/01/11 03:16:55;;;;;;;0.73;0.40;;;;;;;1.37;95.49;101454.06;5095317;28;20452;-76
2021/01/11 03:19:21;;;;;;;0.87;0.87;;;;;;;1.33;96.39;101452.91;5095446;28;20475;-76
2021/01/11 03:21:48;;;;;;;1.67;0.60;;;;;;;1.34;96.51;101445.69;5095476;28;20433;-76
2021/01/11 03:24:15;;;;;;;1.80;1.70;;;;;;;1.31;97.13;101448.78;5095520;28;20443;-76
2021/01/11 03:26:42;;;;;;;0.40;0.30;;;;;;;1.30;96.68;101447.16;5095980;28;20497;-76
2021/01/11 03:29:08;;;;;;;0.40;0.30;;;;;;;1.20;97.21;101447.66;5095647;28;20815;-76
2021/01/11 03:31:35;;;;;;;1.13;1.03;;;;;;;1.19;97.38;101433.47;5094331;28;20436;-76
2021/01/11 03:34:01;;;;;;;0.63;0.63;;;;;;;1.18;97.27;101439.84;5095262;28;20439;-77
2021/01/11 03:36:29;;;;;;;0.40;0.30;;;;;;;1.20;97.49;101447.66;5094827;28;21007;-77
2021/01/11 03:38:57;;;;;;;0.53;0.53;;;;;;;1.20;98.61;101442.31;5095334;28;20468;-77
2021/01/11 03:41:23;;;;;;;0.40;0.30;;;;;;;1.23;98.34;101436.53;5095308;28;20429;-76
2021/01/11 03:43:49;;;;;;;0.40;0.40;;;;;;;1.28;98.09;101436.69;5095048;28;20815;-77
2021/01/11 03:46:17;;;;;;;0.43;0.43;;;;;;;1.33;98.24;101436.03;5095711;28;20472;-76
2021/01/11 03:48:45;;;;;;;0.40;0.30;;;;;;;1.33;98.29;101433.38;5094893;28;20476;-77
2021/01/11 03:51:12;;;;;;;0.50;0.50;;;;;;;1.38;98.57;101439.72;5094980;28;20444;-76
2021/01/11 03:53:38;;;;;;;0.40;0.33;;;;;;;1.42;98.17;101432.91;5095629;28;20436;-76
2021/01/11 03:56:06;;;;;;;1.33;1.23;;;;;;;1.44;97.21;101432.66;5094886;28;20439;-76
2021/01/11 03:58:32;;;;;;;0.60;0.57;;;;;;;1.41;96.85;101433.91;5096445;28;20470;-76
2021/01/11 04:00:59;;;;;;;0.83;0.83;;;;;;;1.38;96.82;101430.88;5095598;28;20441;-76
2021/01/11 04:03:26;;;;;;;2.73;2.53;;;;;;;1.35;97.39;101433.97;5094595;28;20941;-76
2021/01/11 04:05:52;;;;;;;1.80;0.80;;;;;;;1.38;97.46;101428.22;5094262;28;21065;-76
2021/01/11 04:08:18;;;;;;;0.40;0.33;;;;;;;1.39;97.63;101428.00;5096313;28;20865;-76
2021/01/11 04:10:44;;;;;;;0.40;0.30;;;;;;;1.34;97.10;101419.81;5094233;28;20459;-76
2021/01/11 04:13:12;;;;;;;0.40;0.30;;;;;;;1.29;96.42;101413.53;5075935;28;20449;-76
2021/01/11 04:15:38;;;;;;;2.47;0.77;;;;;;;1.29;96.99;101422.34;5079524;28;20438;-77
2021/01/11 04:18:05;;;;;;;1.97;1.03;;;;;;;1.24;97.40;101422.19;5075200;28;20955;-77
2021/01/11 04:20:31;;;;;;;0.40;0.30;;;;;;;1.31;97.57;101420.25;5081439;23;20512;-67
2021/01/11 04:22:58;;;;;;;0.40;0.20;;;;;;;1.23;96.98;101420.53;5073811;28;20441;-67
2021/01/11 04:25:25;;;;;;;0.40;0.30;;;;;;;1.18;97.08;101418.50;5073609;28;20473;-67
2021/01/11 04:27:51;;;;;;;0.50;0.40;;;;;;;1.25;97.28;101413.13;5073317;28;21046;-67
2021/01/11 04:30:19;;;;;;;0.40;0.30;;;;;;;1.29;97.47;101408.19;5073587;28;20503;-67
2021/01/11 04:32:46;;;;;;;0.60;0.50;;;;;;;1.29;97.16;101406.31;5073568;28;20449;-67
2021/01/11 04:35:12;;;;;;;0.40;0.30;;;;;;;1.34;97.72;101406.47;5073584;28;20434;-67
2021/01/11 04:37:39;;;;;;;0.67;0.50;;;;;;;1.36;97.31;101399.06;5073252;28;20454;-67
2021/01/11 04:40:07;;;;;;;0.57;0.57;;;;;;;1.34;97.06;101395.00;5073541;28;20495;-66
2021/01/11 04:42:44;;;;;;;0.97;0.80;;;;;;;1.37;97.11;101402.53;5073170;28;20493;-67
2021/01/11 04:45:11;;;;;;;0.57;0.57;;;;;;;1.39;97.39;101395.16;5073388;28;20429;-67
2021/01/11 04:47:38;;;;;;;0.90;0.90;;;;;;;1.47;96.90;101394.88;5073283;28;20516;-67
2021/01/11 04:50:06;;;;;;;0.40;0.30;;;;;;;1.46;96.58;101394.06;5073358;28;20872;-66
2021/01/11 04:52:32;;;;;;;0.77;0.77;;;;;;;1.45;96.40;101391.59;5073108;28;20454;-68
2021/01/11 04:55:02;;;;;;;0.50;0.40;;;;;;;1.46;95.82;101387.88;5072956;28;20534;-67
2021/01/11 04:57:33;;;;;;;0.50;0.50;;;;;;;1.46;95.95;101390.53;5073252;28;20445;-66
2021/01/11 05:00:04;;;;;;;2.40;0.50;;;;;;;1.45;95.72;101386.25;5073352;28;20422;-66
2021/01/11 05:02:30;;;;;;;0.40;0.30;;;;;;;1.44;95.87;101389.97;5072885;28;20461;-67
2021/01/11 05:04:58;;;;;;;0.70;0.50;;;;;;;1.45;95.82;101402.25;5072826;28;20970;-67
2021/01/11 05:07:29;;;;;;;1.50;0.50;;;;;;;1.46;96.01;101387.88;5073135;28;20578;-67
2021/01/11 05:09:56;;;;;;;5.77;2.63;;;;;;;1.43;95.73;101393.69;5073172;28;20801;-66
2021/01/11 05:12:23;;;;;;;0.90;0.50;;;;;;;1.47;95.91;101384.19;5073119;28;20506;-67
2021/01/11 05:14:49;;;;;;;0.53;0.50;;;;;;;1.44;95.36;101385.44;5073056;28;20442;-66
2021/01/11 05:17:16;;;;;;;0.63;0.50;;;;;;;1.44;95.21;101384.63;5073308;28;20475;-67
2021/01/11 05:19:43;;;;;;;0.53;0.40;;;;;;;1.46;95.22;101382.53;5072708;28;20534;-67
2021/01/11 05:22:10;;;;;;;0.50;0.40;;;;;;;1.47;96.41;101378.84;5073021;28;20515;-67
2021/01/11 05:24:37;;;;;;;5.83;0.83;;;;;;;1.45;96.15;101378.25;5073007;28;20445;-67
2021/01/11 05:27:05;;;;;;;0.70;0.70;;;;;;;1.50;96.16;101373.06;5072652;28;21077;-67
2021/01/11 05:29:32;;;;;;;0.60;0.60;;;;;;;1.57;96.35;101370.31;5072931;28;20448;-68
2021/01/11 05:31:59;;;;;;;0.40;0.30;;;;;;;1.59;95.50;101374.38;5073472;28;20503;-69
2021/01/11 05:34:47;;;;;;;0.70;0.70;;;;;;;1.58;95.17;101375.44;5072908;28;20519;-68
2021/01/11 05:37:32;;;;;;;0.40;0.30;;;;;;;1.56;95.22;101377.53;5072643;28;20460;-68
2021/01/11 05:40:12;;;;;;;6.43;1.27;;;;;;;1.57;95.50;101373.00;5072566;28;20441;-68
2021/01/11 05:42:40;;;;;;;0.40;0.30;;;;;;;1.56;95.81;101369.50;5072713;28;20453;-68
2021/01/11 05:45:14;;;;;;;0.73;0.73;;;;;;;1.62;96.00;101375.81;5072864;28;20476;-68
2021/01/11 05:48:04;;;;;;;1.47;1.37;;;;;;;1.55;95.10;101367.88;5072449;28;20495;-68
2021/01/11 05:50:37;;;;;;;0.73;0.70;;;;;;;1.55;95.03;101365.22;5072448;28;20895;-68
2021/01/11 05:53:04;;;;;;;0.40;0.30;;;;;;;1.55;96.06;101365.22;5072556;28;20474;-68
2021/01/11 05:55:32;;;;;;;0.50;0.40;;;;;;;1.60;95.85;101367.22;5075718;28;20488;-68
2021/01/11 05:58:02;;;;;;;0.40;0.30;;;;;;;1.61;95.04;101361.66;5076546;28;20792;-68
2021/01/11 06:00:31;;;;;;;0.40;0.40;;;;;;;1.59;95.30;101361.03;5076351;28;20451;-68
2021/01/11 06:02:58;;;;;;;0.40;0.30;;;;;;;1.56;95.07;101356.16;5076180;28;20445;-69
2021/01/11 06:05:25;;;;;;;0.40;0.30;;;;;;;1.59;95.03;101360.22;5076392;28;20858;-68
2021/01/11 06:07:52;;;;;;;1.23;1.23;;;;;;;1.60;94.55;101354.69;5076208;28;20489;-67
2021/01/11 06:10:21;;;;;;;0.80;0.60;;;;;;;1.56;94.69;101352.69;5076069;28;20952;-69
2021/01/11 06:12:49;;;;;;;0.40;0.30;;;;;;;1.59;94.80;101361.03;5075873;28;20469;-68
2021/01/11 06:15:17;;;;;;;2.23;0.47;;;;;;;1.62;94.34;101362.47;5076210;28;20498;-67
2021/01/11 06:17:45;;;;;;;0.60;0.43;;;;;;;1.61;94.36;101360.84;5076084;28;20466;-68
2021/01/11 06:20:17;;;;;;;0.40;0.37;;;;;;;1.56;93.96;101353.50;5075940;28;20455;-66
2021/01/11 06:23:04;;;;;;;2.63;0.80;;;;;;;1.61;94.85;101358.97;5075980;28;20866;-68
2021/01/11 06:25:39;;;;;;;0.40;0.30;;;;;;;1.64;95.22;101358.53;5075931;28;20466;-67
2021/01/11 06:28:08;;;;;;;2.10;1.00;;;;;;;1.68;95.13;101364.22;5075961;28;20439;-67
2021/01/11 06:30:39;;;;;;;0.40;0.30;;;;;;;1.70;94.51;101360.31;5075166;28;20502;-67
2021/01/11 06:33:07;;;;;;;0.40;0.30;;;;;;;1.69;94.57;101353.34;5076012;28;20467;-67
2021/01/11 06:35:33;;;;;;;1.43;1.33;;;;;;;1.73;94.64;101356.41;5075818;28;20452;-67
2021/01/11 06:38:18;;;;;;;0.40;0.30;;;;;;;1.75;94.67;101359.66;5075968;28;20477;-67
2021/01/11 06:40:49;;;;;;;0.40;0.30;;;;;;;1.72;93.61;101358.22;5075438;28;21033;-67
2021/01/11 06:43:16;;;;;;;0.50;0.50;;;;;;;1.75;93.56;101360.47;5075783;28;20468;-67
2021/01/11 06:45:45;;;;;;;1.03;0.57;;;;;;;1.76;93.89;101340.72;5075548;28;20498;-67
2021/01/11 06:48:17;;;;;;;0.40;0.30;;;;;;;1.80;94.21;101341.09;5075328;28;20440;-67
2021/01/11 06:50:45;;;;;;;0.40;0.30;;;;;;;1.82;93.42;101354.25;5075457;28;20543;-67
2021/01/11 06:53:12;;;;;;;0.40;0.30;;;;;;;1.83;92.92;101339.84;5075473;28;20485;-67
2021/01/11 06:55:39;;;;;;;0.40;0.40;;;;;;;1.83;92.39;101337.97;5075433;28;20475;-67
2021/01/11 06:58:07;;;;;;;0.80;0.80;;;;;;;1.82;92.39;101348.91;5075150;28;20484;-68
2021/01/11 07:00:36;;;;;;;6.93;1.73;;;;;;;1.80;93.00;101338.41;5075221;28;20491;-67
2021/01/11 07:03:04;;;;;;;0.50;0.40;;;;;;;1.85;92.96;101346.56;5075153;28;20503;-67
2021/01/11 07:05:49;;;;;;;1.27;0.73;;;;;;;1.79;91.74;101347.47;5074878;28;21018;-67
2021/01/11 07:08:20;;;;;;;0.60;0.53;;;;;;;1.83;91.95;101347.84;5074897;28;20955;-68
2021/01/11 07:10:50;;;;;;;0.40;0.30;;;;;;;1.79;91.94;101344.00;5075166;28;20496;-68
2021/01/11 07:13:29;;;;;;;0.40;0.30;;;;;;;1.79;91.91;101355.50;5075246;28;20450;-68
2021/01/11 07:16:10;;;;;;;0.40;0.40;;;;;;;1.79;91.43;101346.66;5074899;28;20951;-67
2021/01/11 07:18:56;;;;;;;0.40;0.33;;;;;;;1.79;92.55;101339.47;5074856;28;20781;-68
2021/01/11 07:21:25;;;;;;;0.93;0.83;;;;;;;1.71;90.96;101343.25;5074591;28;20902;-68
2021/01/11 07:23:52;;;;;;;0.67;0.67;;;;;;;1.77;91.50;101338.84;5074673;28;20498;-68
2021/01/11 07:26:20;;;;;;;0.40;0.30;;;;;;;1.83;91.91;101335.31;5074783;28;20473;-68
2021/01/11 07:28:58;;;;;;;0.40;0.30;;;;;;;1.88;92.06;101334.63;5074996;28;20442;-67
2021/01/11 07:31:27;;;;;;;0.97;0.60;;;;;;;1.87;90.87;101331.16;5074672;28;20474;-68
2021/01/11 07:34:03;;;;;;;1.50;0.73;;;;;;;1.94;90.84;101336.41;5074661;28;20466;-68
2021/01/11 07:36:36;;;;;;;0.40;0.30;;;;;;;1.90;90.29;101335.22;5074724;28;20428;-68
2021/01/11 07:39:17;;;;;;;0.70;0.70;;;;;;;1.93;90.78;101340.94;5074672;28;20432;-68
2021/01/11 07:41:48;;;;;;;0.40;0.30;;;;;;;1.96;90.51;101332.47;5074421;28;20461;-69
2021/01/11 07:44:20;;;;;;;0.50;0.40;;;;;;;1.97;91.10;101325.28;5074475;28;20441;-67
2021/01/11 07:46:52;;;;;;;0.40;0.30;;;;;;;1.95;90.18;101333.53;5074418;28;20518;-68
2021/01/11 07:49:19;;;;;;;0.70;0.50;;;;;;;1.95;89.77;101332.72;5074376;28;20476;-68
2021/01/11 07:51:48;;;;;;;1.40;1.30;;;;;;;1.97;90.61;101335.97;5073908;28;20496;-68
2021/01/11 07:54:16;;;;;;;0.47;0.33;;;;;;;2.01;90.85;101331.78;5074278;28;20926;-68
2021/01/11 07:56:44;;;;;;;1.57;0.70;;;;;;;2.00;90.54;101340.84;5074236;28;20468;-69
2021/01/11 07:59:10;;;;;;;0.70;0.57;;;;;;;1.99;90.66;101337.38;5073912;28;20462;-68
2021/01/11 08:01:42;;;;;;;2.20;1.80;;;;;;;2.01;91.00;101332.59;5074108;28;20493;-68
2021/01/11 08:04:10;;;;;;;1.13;0.60;;;;;;;2.01;89.95;101342.47;5073690;28;20473;-67
2021/01/11 08:06:53;;;;;;;0.67;0.67;;;;;;;2.05;89.99;101348.19;5073485;28;20862;-68
2021/01/11 08:09:23;;;;;;;0.50;0.40;;;;;;;1.96;90.65;101339.69;5073726;28;20448;-68
2021/01/11 08:12:03;;;;;;;0.40;0.30;;;;;;;1.96;90.34;101345.03;5073907;28;20503;-68
2021/01/11 08:14:29;;;;;;;0.60;0.40;;;;;;;1.96;91.34;101347.69;5073637;28;20428;-68
2021/01/11 08:16:58;;;;;;;0.40;0.30;;;;;;;1.99;90.95;101339.22;5073242;28;20445;-67
2021/01/11 08:19:24;;;;;;;2.97;0.73;;;;;;;1.96;90.80;101342.34;5073505;28;20506;-68
2021/01/11 08:21:57;;;;;;;1.53;0.80;;;;;;;1.97;91.15;101341.31;5073386;28;21009;-68
2021/01/11 08:24:23;;;;;;;0.40;0.30;;;;;;;2.02;91.06;101341.44;5073784;28;20421;-68
2021/01/11 08:26:54;;;;;;;0.40;0.30;;;;;;;2.10;91.05;101348.34;5073284;28;20517;-68
2021/01/11 08:29:20;;;;;;;0.60;0.47;;;;;;;2.08;90.23;101340.56;5073689;28;20429;-65
2021/01/11 08:31:47;;;;;;;0.40;0.30;;;;;;;2.00;89.78;101335.50;5073524;28;20469;-68
2021/01/11 08:34:14;;;;;;;1.37;1.17;;;;;;;1.99;90.09;101340.03;5073267;28;20450;-68
2021/01/11 08:36:40;;;;;;;2.53;1.10;;;;;;;2.00;90.80;101340.84;5073528;28;20875;-69
2021/01/11 08:39:13;;;;;;;2.30;2.20;;;;;;;2.00;91.48;101330.19;5073129;28;20952;-68
2021/01/11 08:41:42;;;;;;;9.10;3.83;;;;;;;2.00;91.48;101340.84;5072958;28;20493;-69
2021/01/11 08:44:23;;;;;;;1.07;0.93;;;;;;;2.03;92.21;101340.38;5073049;28;20437;-70
2021/01/11 08:47:00;;;;;;;0.40;0.23;;;;;;;2.01;91.65;101340.63;5073104;28;20838;-69
2021/01/11 08:49:28;;;;;;;3.70;1.40;;;;;;;2.02;92.74;101336.91;5073586;28;20425;-70
2021/01/11 08:52:05;;;;;;;1.23;1.23;;;;;;;2.01;92.90;101332.59;5073264;28;20487;-70
2021/01/11 08:54:32;;;;;;;0.40;0.30;;;;;;;1.99;92.36;101333.88;5073626;28;20426;-71
2021/01/11 08:57:08;;;;;;;0.40;0.30;;;;;;;1.99;92.45;101334.72;5073529;28;20468;-69
2021/01/11 08:59:37;;;;;;;0.43;0.40;;;;;;;2.06;92.59;101333.78;5073012;28;20467;-69
2021/01/11 09:02:03;;;;;;;0.87;0.87;;;;;;;2.11;93.18;101332.06;5072848;28;20454;-69
2021/01/11 09:04:35;;;;;;;0.70;0.67;;;;;;;2.11;93.25;101337.41;5073415;28;20441;-69
2021/01/11 09:07:03;;;;;;;0.50;0.50;;;;;;;2.17;92.12;101333.00;5073043;28;20491;-69
2021/01/11 09:09:30;;;;;;;0.40;0.40;;;;;;;2.19;91.56;101337.09;5073144;28;20473;-68
2021/01/11 09:12:02;;;;;;;1.40;0.90;;;;;;;2.24;91.83;101333.75;5072709;28;20469;-70
2021/01/11 09:14:30;;;;;;;0.67;0.40;;;;;;;2.24;91.14;101337.22;5073091;28;20824;-69
2021/01/11 09:16:59;;;;;;;0.70;0.60;;;;;;;2.31;91.39;101333.66;5073055;28;20471;-69
2021/01/11 09:19:28;;;;;;;1.53;0.43;;;;;;;2.33;90.04;101334.25;5072670;28;20951;-68
2021/01/11 09:22:01;;;;;;;1.90;1.30;;;;;;;2.40;90.56;101340.31;5072475;28;20472;-69
2021/01/11 09:24:27;;;;;;;0.40;0.30;;;;;;;2.37;89.89;101340.75;5073164;28;20448;-69
2021/01/11 09:26:54;;;;;;;2.70;2.50;;;;;;;2.35;89.73;101345.53;5072868;28;20488;-69
2021/01/11 09:29:21;;;;;;;0.70;0.70;;;;;;;2.31;89.03;101339.81;5073906;28;20795;-66
2021/01/11 09:31:48;;;;;;;0.40;0.30;;;;;;;2.33;89.29;101329.69;5076956;28;20533;-69
2021/01/11 09:34:15;;;;;;;0.40;0.30;;;;;;;2.34;89.79;101335.88;5076983;28;20444;-69
2021/01/11 09:36:41;;;;;;;2.53;0.50;;;;;;;2.38;88.88;101337.03;5076592;28;20886;-68
2021/01/11 09:39:10;;;;;;;0.40;0.40;;;;;;;2.40;89.31;101334.97;5076566;28;20651;-68
2021/01/11 09:41:58;;;;;;;0.40;0.30;;;;;;;2.44;89.38;101331.59;5076722;28;20504;-68
2021/01/11 09:44:24;;;;;;;1.20;1.13;;;;;;;2.51;88.70;101334.16;5076862;28;20440;-68
2021/01/11 09:46:52;;;;;;;0.40;0.30;;;;;;;2.48;87.59;101342.66;5076656;28;20512;-68
2021/01/11 09:49:18;;;;;;;1.23;1.13;;;;;;;2.45;87.44;101335.09;5076360;28;20536;-68
2021/01/11 09:51:45;;;;;;;0.60;0.60;;;;;;;2.46;87.57;101326.84;5076526;28;20477;-69
2021/01/11 09:54:12;;;;;;;0.60;0.53;;;;;;;2.45;87.49;101327.06;5076306;28;20506;-68
2021/01/11 09:56:39;;;;;;;0.87;0.50;;;;;;;2.47;87.16;101333.00;5076563;28;20441;-69
2021/01/11 09:59:06;;;;;;;0.40;0.30;;;;;;;2.51;86.37;101326.16;5076477;28;20449;-68
2021/01/11 10:01:36;;;;;;;0.50;0.43;;;;;;;2.51;86.54;101324.28;5076377;28;20841;-68
2021/01/11 10:04:03;;;;;;;0.40;0.33;;;;;;;2.56;87.15;101322.78;5076714;28;20445;-67
2021/01/11 10:06:37;;;;;;;0.40;0.37;;;;;;;2.64;87.49;101327.81;5076475;28;20522;-68
2021/01/11 10:09:03;;;;;;;0.40;0.30;;;;;;;2.68;85.92;101316.41;5076331;28;20411;-67
2021/01/11 10:11:31;;;;;;;0.40;0.30;;;;;;;2.76;86.16;101318.75;5077287;28;20993;-69
2021/01/11 10:13:57;;;;;;;1.80;0.97;;;;;;;2.81;85.80;101319.94;5075865;28;20441;-68
2021/01/11 10:16:23;;;;;;;0.40;0.30;;;;;;;2.77;85.46;101323.06;5076139;28;20488;-68
2021/01/11 10:18:49;;;;;;;0.40;0.40;;;;;;;2.77;85.31;101323.06;5075826;28;20489;-69
2021/01/11 10:21:15;;;;;;;0.40;0.30;;;;;;;2.74;85.24;101317.34;5075753;28;20864;-67
2021/01/11 10:23:41;;;;;;;0.47;0.40;;;;;;;2.67;85.32;101314.81;5075763;28;20958;-69
2021/01/11 10:26:13;;;;;;;0.80;0.80;;;;;;;2.69;85.57;101312.69;5076065;28;20440;-68
2021/01/11 10:28:40;;;;;;;0.40;0.20;;;;;;;2.65;85.68;101310.72;5075560;28;20485;-68
2021/01/11 10:31:07;;;;;;;1.07;0.60;;;;;;;2.61;85.77;101305.03;5075375;28;20549;-68
2021/01/11 10:33:33;;;;;;;0.40;0.30;;;;;;;2.62;85.97;101305.84;5075771;28;20441;-67
2021/01/11 10:35:59;;;;;;;0.40;0.30;;;;;;;2.53;86.88;101308.84;5075927;28;20448;-67
2021/01/11 10:38:25;;;;;;;0.40;0.30;;;;;;;2.56;87.96;101302.22;5075490;28;20447;-68
2021/01/11 10:40:51;;;;;;;0.40;0.20;;;;;;;2.52;87.53;101304.56;5075210;28;20468;-67
2021/01/11 10:43:17;;;;;;;0.40;0.30;;;;;;;2.48;87.90;101299.91;5075710;28;20447;-68
2021/01/11 10:45:44;;;;;;;5.63;1.60;;;;;;;2.46;88.97;101296.63;5075622;28;20441;-70
2021/01/11 10:50:54;;;;;;;2.60;0.90;;;;;;;2.44;89.65;101288.03;5074893;28;20517;-69
2021/01/11 10:53:20;;;;;;;0.40;0.40;;;;;;;2.42;90.08;101284.75;5075529;28;20449;-70
2021/01/11 10:55:46;;;;;;;1.17;0.73;;;;;;;2.35;90.69;101281.38;5075109;28;20954;-69
2021/01/11 10:58:14;;;;;;;0.40;0.30;;;;;;;2.28;90.94;101276.94;5075495;28;20441;-70
2021/01/11 11:00:41;;;;;;;0.40;0.30;;;;;;;2.25;91.50;101269.34;5075448;28;20518;-70
2021/01/11 11:03:08;;;;;;;0.77;0.73;;;;;;;2.22;93.25;101263.69;5075404;28;20441;-69
2021/01/11 11:05:34;;;;;;;0.50;0.47;;;;;;;2.20;93.61;101261.22;5075402;28;20446;-70
2021/01/11 11:08:00;;;;;;;0.47;0.40;;;;;;;2.17;93.46;101260.84;5075016;28;20481;-70
2021/01/11 11:10:27;;;;;;;0.80;0.50;;;;;;;2.17;93.28;101247.50;5075357;28;20446;-71
2021/01/11 11:12:53;;;;;;;0.43;0.40;;;;;;;2.20;93.77;101250.53;5074902;28;20934;-70
2021/01/11 11:15:19;;;;;;;0.50;0.40;;;;;;;2.11;93.91;101245.75;5075280;28;20444;-69
2021/01/11 11:17:45;;;;;;;0.67;0.50;;;;;;;2.13;94.42;101241.81;5075268;28;20441;-70
2021/01/11 11:20:13;;;;;;;0.40;0.30;;;;;;;2.12;95.28;101232.16;5074836;28;20457;-69
2021/01/11 11:22:40;;;;;;;0.40;0.30;;;;;;;2.18;95.34;101225.91;5074759;28;20461;-69
2021/01/11 11:25:08;;;;;;;0.40;0.20;;;;;;;2.16;94.76;101225.31;5075050;28;20453;-70
2021/01/11 11:27:34;;;;;;;0.50;0.40;;;;;;;2.11;95.19;101219.03;5074793;28;20477;-71
2021/01/11 11:30:01;;;;;;;0.83;0.83;;;;;;;2.05;94.83;101220.75;5074866;28;20479;-70
2021/01/11 11:32:29;;;;;;;0.40;0.30;;;;;;;2.09;95.91;101213.13;5074800;28;20499;-71
2021/01/11 11:34:55;;;;;;;1.17;0.73;;;;;;;2.13;95.84;101204.41;5074751;28;20445;-70
2021/01/11 11:37:22;;;;;;;0.40;0.30;;;;;;;2.13;95.63;101206.28;5074790;28;20437;-69
2021/01/11 11:39:49;;;;;;;0.40;0.33;;;;;;;2.16;95.70;101206.59;5074499;28;20473;-69
2021/01/11 11:42:15;;;;;;;0.40;0.30;;;;;;;2.21;96.16;101203.25;5074597;28;20465;-70
2021/01/11 11:44:41;;;;;;;0.40;0.30;;;;;;;2.27;95.89;101195.13;5074597;28;20441;-70